Time;durP1;ratioP1;P1;durP2;ratioP2;P2;SDS_P1;SDS_P2;PMS_P1;PMS_P2;Temp;Humidity;BMP_temperature;BMP_pressure;BME280_temperature;BME280_humidity;BME280_pressure;Samples;Min_cycle;Max_cycle;Signal;HPM_P1;HPM_P2
2022/01/31 00:01:59;;;;;;;;;;;4.30;99.90;;;;;;4993808;28;19934;-82
2022/01/31 00:04:25;;;;;;;;;;;4.30;99.90;;;;;;4842489;29;19936;-83
2022/01/31 00:06:53;;;;;;;;;;;4.40;99.90;;;;;;4520819;30;19939;-81
2022/01/31 00:11:59;;;;;;;;;;;4.40;99.90;;;;;;5169838;27;19942;-81
2022/01/31 00:14:33;;;;;;;;;;;4.40;99.90;;;;;;5080553;28;19924;-80
2022/01/31 00:17:00;;;;;;;;;;;4.30;99.90;;;;;;5052152;28;19925;-84
2022/01/31 00:19:27;;;;;;;;;;;4.40;99.90;;;;;;5058291;28;19925;-85
2022/01/31 00:21:54;;;;;;;;;;;4.40;99.90;;;;;;4879177;29;19929;-81
2022/01/31 00:24:20;;;;;;;;;;;4.30;99.90;;;;;;4715756;29;19933;-81
2022/01/31 00:26:47;;;;;;;;;;;4.30;99.90;;;;;;4488617;31;19944;-80
2022/01/31 00:34:20;;;;;;;;;;;4.20;99.90;;;;;;5179018;27;19926;-83
2022/01/31 00:36:47;;;;;;;;;;;4.20;99.90;;;;;;5142051;27;19924;-78
2022/01/31 00:39:14;;;;;;;;;;;4.20;99.90;;;;;;5122653;28;19924;-79
2022/01/31 00:41:42;;;;;;;;;;;4.30;99.90;;;;;;5047195;28;19926;-80
2022/01/31 00:44:22;;;;;;;;;;;4.20;99.90;;;;;;4933389;28;19940;-82
2022/01/31 00:46:52;;;;;;;;;;;4.20;99.90;;;;;;4744466;29;19932;-82
2022/01/31 00:49:33;;;;;;;;;;;4.10;99.90;;;;;;4506886;31;19937;-83
2022/01/31 00:56:18;;;;;;;;;;;4.10;99.90;;;;;;5177474;27;19928;-83
2022/01/31 00:58:44;;;;;;;;;;;4.00;99.90;;;;;;5133878;27;19930;-83
2022/01/31 01:01:11;;;;;;;;;;;4.00;99.90;;;;;;5096160;28;19939;-80
2022/01/31 01:03:38;;;;;;;;;;;4.00;99.90;;;;;;5064072;28;19925;-82
2022/01/31 01:06:04;;;;;;;;;;;4.00;99.90;;;;;;4975628;28;19928;-80
2022/01/31 01:08:31;;;;;;;;;;;4.00;99.90;;;;;;4792736;29;19948;-82
2022/01/31 01:10:58;;;;;;;;;;;4.00;99.90;;;;;;4618722;30;19941;-80
2022/01/31 01:18:30;;;;;;;;;;;3.90;99.90;;;;;;5187167;27;19926;-81
2022/01/31 01:20:57;;;;;;;;;;;3.80;99.90;;;;;;5127552;27;19923;-81
2022/01/31 01:23:23;;;;;;;;;;;3.60;99.90;;;;;;5093126;28;19939;-82
2022/01/31 01:25:51;;;;;;;;;;;3.60;99.90;;;;;;5069958;28;19932;-80
2022/01/31 01:28:20;;;;;;;;;;;3.60;99.90;;;;;;4959360;28;19929;-79
2022/01/31 01:30:48;;;;;;;;;;;3.60;99.90;;;;;;4742187;29;19939;-84
2022/01/31 01:33:19;;;;;;;;;;;3.60;99.90;;;;;;4492566;31;19937;-84
2022/01/31 01:40:13;;;;;;;;;;;3.60;99.90;;;;;;5177770;27;19925;-80
2022/01/31 01:42:41;;;;;;;;;;;3.60;99.90;;;;;;5150497;27;19923;-84
2022/01/31 01:45:09;;;;;;;;;;;3.60;99.90;;;;;;5121486;27;20008;-84
2022/01/31 01:47:41;;;;;;;;;;;3.60;99.90;;;;;;5088890;28;19935;-83
2022/01/31 01:50:08;;;;;;;;;;;3.60;99.90;;;;;;4994324;28;19928;-79
2022/01/31 01:52:35;;;;;;;;;;;3.60;99.90;;;;;;4804100;29;19942;-80
2022/01/31 01:55:02;;;;;;;;;;;3.50;99.90;;;;;;4553543;30;19940;-81
2022/01/31 02:00:16;;;;;;;;;;;3.50;99.90;;;;;;5181735;27;19926;-80
2022/01/31 02:02:43;;;;;;;;;;;3.50;99.90;;;;;;5116694;27;19924;-81
2022/01/31 02:05:14;;;;;;;;;;;3.60;99.90;;;;;;5093292;28;19930;-80
2022/01/31 02:07:42;;;;;;;;;;;3.50;99.90;;;;;;5046748;28;19933;-81
2022/01/31 02:10:12;;;;;;;;;;;3.50;99.90;;;;;;4934230;28;19936;-82
2022/01/31 02:13:09;;;;;;;;;;;3.50;99.90;;;;;;4768070;29;19934;-80
2022/01/31 02:15:57;;;;;;;;;;;3.50;99.90;;;;;;4426766;31;19948;-81
2022/01/31 02:22:40;;;;;;;;;;;3.50;99.90;;;;;;5172385;27;19926;-83
2022/01/31 02:25:23;;;;;;;;;;;3.60;99.90;;;;;;5106105;28;19931;-83
2022/01/31 02:28:13;;;;;;;;;;;3.60;99.90;;;;;;5063361;28;19925;-82
2022/01/31 02:30:40;;;;;;;;;;;3.60;99.90;;;;;;5013119;28;19927;-81
2022/01/31 02:33:09;;;;;;;;;;;3.60;99.90;;;;;;4889970;29;19928;-79
2022/01/31 02:35:36;;;;;;;;;;;3.60;99.90;;;;;;4689353;29;19934;-82
2022/01/31 02:38:03;;;;;;;;;;;3.60;99.90;;;;;;4500562;31;19944;-83
2022/01/31 02:45:38;;;;;;;;;;;3.60;99.90;;;;;;5176077;27;19929;-81
2022/01/31 02:48:05;;;;;;;;;;;3.60;99.90;;;;;;5125589;27;19923;-83
2022/01/31 02:50:33;;;;;;;;;;;3.60;99.90;;;;;;5132897;27;19923;-80
2022/01/31 02:53:11;;;;;;;;;;;3.60;99.90;;;;;;5067127;28;19928;-82
2022/01/31 02:55:38;;;;;;;;;;;3.60;99.90;;;;;;4984207;28;19928;-82
2022/01/31 02:58:05;;;;;;;;;;;3.60;99.90;;;;;;4816787;29;19931;-83
2022/01/31 03:00:32;;;;;;;;;;;3.60;99.90;;;;;;4697587;30;19940;-84
2022/01/31 03:08:36;;;;;;;;;;;3.60;99.90;;;;;;5175225;27;19926;-83
2022/01/31 03:11:19;;;;;;;;;;;3.60;99.90;;;;;;5117465;28;19925;-85
2022/01/31 03:13:55;;;;;;;;;;;3.50;99.90;;;;;;5087181;28;19924;-83
2022/01/31 03:16:22;;;;;;;;;;;3.50;99.90;;;;;;5059328;28;19929;-81
2022/01/31 03:19:12;;;;;;;;;;;3.60;99.90;;;;;;4940005;28;19927;-80
2022/01/31 03:21:39;;;;;;;;;;;3.60;99.90;;;;;;4740167;29;19931;-80
2022/01/31 03:24:07;;;;;;;;;;;3.60;99.90;;;;;;4471794;31;19924;-81
2022/01/31 03:31:25;;;;;;;;;;;3.60;99.90;;;;;;5183659;27;19926;-80
2022/01/31 03:33:53;;;;;;;;;;;3.60;99.90;;;;;;5103318;28;19931;-83
2022/01/31 03:36:20;;;;;;;;;;;3.60;99.90;;;;;;5090828;28;19947;-80
2022/01/31 03:38:47;;;;;;;;;;;3.60;99.90;;;;;;5061878;28;19925;-82
2022/01/31 03:41:15;;;;;;;;;;;3.60;99.90;;;;;;4957681;28;19928;-80
2022/01/31 03:43:42;;;;;;;;;;;3.60;99.90;;;;;;4773690;29;19932;-81
2022/01/31 03:46:09;;;;;;;;;;;3.60;99.90;;;;;;4437665;31;19939;-81
2022/01/31 03:53:43;;;;;;;;;;;3.60;99.90;;;;;;5174233;27;19926;-83
2022/01/31 03:56:10;;;;;;;;;;;3.60;99.90;;;;;;5117236;27;19923;-81
2022/01/31 03:58:52;;;;;;;;;;;3.60;99.90;;;;;;5110930;28;19931;-81
2022/01/31 04:01:19;;;;;;;;;;;3.50;99.90;;;;;;5091263;28;19924;-82
2022/01/31 04:03:46;;;;;;;;;;;3.50;99.90;;;;;;5033448;28;19934;-80
2022/01/31 04:06:12;;;;;;;;;;;3.50;99.90;;;;;;4897303;28;19928;-81
2022/01/31 04:08:39;;;;;;;;;;;3.50;99.90;;;;;;4699539;29;19940;-83
2022/01/31 04:16:11;;;;;;;;;;;3.50;99.90;;;;;;5173992;27;19925;-81
2022/01/31 04:18:38;;;;;;;;;;;3.40;99.90;;;;;;5155567;27;19945;-82
2022/01/31 04:21:04;;;;;;;;;;;3.40;99.90;;;;;;5135219;27;19932;-82
2022/01/31 04:23:31;;;;;;;;;;;3.40;99.90;;;;;;5097461;28;19931;-82
2022/01/31 04:26:10;;;;;;;;;;;3.40;99.90;;;;;;5059926;28;19925;-81
2022/01/31 04:28:43;;;;;;;;;;;3.30;99.90;;;;;;4912815;28;19935;-82
2022/01/31 04:31:14;;;;;;;;;;;3.40;99.90;;;;;;4612076;29;19937;-85
2022/01/31 04:38:48;;;;;;;;;;;3.30;99.90;;;;;;5173862;27;19925;-84
2022/01/31 04:41:16;;;;;;;;;;;3.30;99.90;;;;;;5113765;27;19924;-80
2022/01/31 04:43:43;;;;;;;;;;;3.30;99.90;;;;;;5133566;27;19946;-81
2022/01/31 04:46:10;;;;;;;;;;;3.20;99.90;;;;;;5139759;27;19935;-82
2022/01/31 04:48:37;;;;;;;;;;;3.30;99.90;;;;;;5066333;28;19932;-78
2022/01/31 04:51:03;;;;;;;;;;;3.30;99.90;;;;;;4876669;28;19930;-79
2022/01/31 04:53:30;;;;;;;;;;;3.30;99.90;;;;;;4587699;30;19920;-88
2022/01/31 05:01:02;;;;;;;;;;;3.40;99.90;;;;;;5171116;27;19925;-87
2022/01/31 05:03:30;;;;;;;;;;;3.40;99.90;;;;;;5120737;27;19931;-88
2022/01/31 05:05:56;;;;;;;;;;;3.30;99.90;;;;;;5125828;27;19923;-88
2022/01/31 05:08:26;;;;;;;;;;;3.30;99.90;;;;;;5104452;28;19932;-83
2022/01/31 05:10:53;;;;;;;;;;;3.30;99.90;;;;;;5065906;28;20000;-82
2022/01/31 05:13:20;;;;;;;;;;;3.30;99.90;;;;;;4934669;28;19929;-82
2022/01/31 05:15:47;;;;;;;;;;;3.20;99.90;;;;;;4645721;29;19933;-84
2022/01/31 05:20:54;;;;;;;;;;;3.30;99.90;;;;;;5141134;27;19927;-83
2022/01/31 05:23:20;;;;;;;;;;;3.30;99.90;;;;;;5115660;28;19923;-85
2022/01/31 05:25:47;;;;;;;;;;;3.40;99.90;;;;;;5098651;28;19927;-79
2022/01/31 05:28:14;;;;;;;;;;;3.40;99.90;;;;;;5092371;28;19930;-80
2022/01/31 05:30:40;;;;;;;;;;;3.40;99.90;;;;;;5037434;28;19934;-80
2022/01/31 05:33:07;;;;;;;;;;;3.30;99.90;;;;;;4888688;29;19937;-82
2022/01/31 05:35:34;;;;;;;;;;;3.20;99.90;;;;;;4760773;29;19940;-85
2022/01/31 05:40:40;;;;;;;;;;;3.20;99.90;;;;;;5173764;27;19926;-82
2022/01/31 05:43:07;;;;;;;;;;;3.20;99.90;;;;;;5117939;27;19924;-84
2022/01/31 05:45:33;;;;;;;;;;;3.30;99.90;;;;;;5123493;28;19946;-84
2022/01/31 05:48:00;;;;;;;;;;;3.20;99.90;;;;;;5069702;28;19926;-85
2022/01/31 05:50:27;;;;;;;;;;;3.20;99.90;;;;;;4925214;28;19928;-84
2022/01/31 05:52:53;;;;;;;;;;;3.20;99.90;;;;;;4774060;29;19932;-81
2022/01/31 05:55:20;;;;;;;;;;;3.10;99.90;;;;;;4583720;30;19935;-81
2022/01/31 06:04:53;;;;;;;;;;;3.10;99.90;;;;;;5173983;27;19925;-82
2022/01/31 06:07:19;;;;;;;;;;;3.00;99.90;;;;;;5132012;27;19923;-80
2022/01/31 06:09:46;;;;;;;;;;;3.00;99.90;;;;;;5131402;27;19932;-81
2022/01/31 06:12:15;;;;;;;;;;;3.00;99.90;;;;;;5048382;28;19948;-81
2022/01/31 06:14:41;;;;;;;;;;;3.00;99.90;;;;;;5013196;28;19933;-81
2022/01/31 06:17:08;;;;;;;;;;;3.00;99.90;;;;;;4933875;28;19916;-82
2022/01/31 06:19:35;;;;;;;;;;;2.90;99.90;;;;;;4781850;29;19931;-81
2022/01/31 06:24:42;;;;;;;;;;;2.90;99.90;;;;;;5174356;27;19926;-82
2022/01/31 06:27:16;;;;;;;;;;;2.90;99.90;;;;;;5121465;28;19924;-83
2022/01/31 06:29:46;;;;;;;;;;;2.90;99.90;;;;;;5055887;28;19947;-80
2022/01/31 06:32:19;;;;;;;;;;;2.80;99.90;;;;;;5002210;28;19937;-80
2022/01/31 06:34:46;;;;;;;;;;;2.80;99.90;;;;;;4950030;28;19927;-80
2022/01/31 06:37:12;;;;;;;;;;;2.80;99.90;;;;;;4760670;29;19932;-80
2022/01/31 06:39:39;;;;;;;;;;;2.70;99.90;;;;;;4523487;30;19936;-82
2022/01/31 06:47:07;;;;;;;;;;;2.80;99.90;;;;;;5181132;27;19925;-80
2022/01/31 06:49:34;;;;;;;;;;;2.80;99.90;;;;;;5142118;27;19923;-80
2022/01/31 06:52:00;;;;;;;;;;;2.70;99.90;;;;;;5147164;27;19931;-82
2022/01/31 06:54:27;;;;;;;;;;;2.80;99.90;;;;;;5103039;28;19932;-82
2022/01/31 06:56:56;;;;;;;;;;;2.80;99.90;;;;;;4979987;28;19928;-81
2022/01/31 06:59:23;;;;;;;;;;;2.80;99.90;;;;;;4803980;29;19932;-83
2022/01/31 07:01:49;;;;;;;;;;;2.80;99.90;;;;;;4552132;30;19943;-81
2022/01/31 07:07:05;;;;;;;;;;;2.80;99.90;;;;;;5153145;27;19927;-82
2022/01/31 07:09:33;;;;;;;;;;;2.80;99.90;;;;;;5115852;27;19931;-82
2022/01/31 07:12:00;;;;;;;;;;;2.80;99.90;;;;;;5080254;28;19925;-80
2022/01/31 07:14:30;;;;;;;;;;;2.80;99.90;;;;;;5014743;28;19925;-79
2022/01/31 07:16:58;;;;;;;;;;;2.80;99.90;;;;;;4929064;28;19928;-82
2022/01/31 07:19:27;;;;;;;;;;;2.80;99.90;;;;;;4809273;29;19930;-82
2022/01/31 07:21:54;;;;;;;;;;;2.80;99.90;;;;;;4617049;30;19935;-81
2022/01/31 07:29:26;;;;;;;;;;;2.90;99.90;;;;;;5178956;27;19925;-82
2022/01/31 07:31:53;;;;;;;;;;;2.90;99.90;;;;;;5130506;27;19930;-80
2022/01/31 07:34:20;;;;;;;;;;;2.80;99.90;;;;;;5129574;27;19938;-79
2022/01/31 07:36:47;;;;;;;;;;;2.80;99.90;;;;;;5104945;28;19924;-81
2022/01/31 07:39:14;;;;;;;;;;;2.80;99.90;;;;;;5029330;28;19927;-78
2022/01/31 07:41:41;;;;;;;;;;;2.80;99.90;;;;;;4834631;29;19931;-79
2022/01/31 07:44:08;;;;;;;;;;;2.70;99.90;;;;;;4639210;30;19936;-81
2022/01/31 07:51:41;;;;;;;;;;;2.80;99.90;;;;;;5165165;27;19925;-84
2022/01/31 07:54:08;;;;;;;;;;;2.80;99.90;;;;;;5116925;27;19924;-80
2022/01/31 07:56:35;;;;;;;;;;;2.90;99.90;;;;;;5111800;28;19924;-83
2022/01/31 07:59:01;;;;;;;;;;;2.90;99.90;;;;;;5031812;28;19932;-84
2022/01/31 08:01:28;;;;;;;;;;;2.90;99.90;;;;;;5004036;28;19926;-83
2022/01/31 08:03:54;;;;;;;;;;;3.00;99.90;;;;;;4844226;29;19930;-81
2022/01/31 08:06:21;;;;;;;;;;;2.90;99.90;;;;;;4608958;30;19935;-85
2022/01/31 08:13:59;;;;;;;;;;;2.80;99.90;;;;;;5174475;27;19925;-80
2022/01/31 08:16:25;;;;;;;;;;;2.80;99.90;;;;;;5117308;27;19923;-80
2022/01/31 08:18:52;;;;;;;;;;;2.90;99.90;;;;;;5151924;27;19923;-83
2022/01/31 08:21:20;;;;;;;;;;;2.90;99.90;;;;;;5102594;28;19932;-84
2022/01/31 08:23:47;;;;;;;;;;;2.90;99.90;;;;;;4983450;28;19931;-83
2022/01/31 08:26:16;;;;;;;;;;;3.00;99.90;;;;;;4840549;29;19930;-80
2022/01/31 08:28:47;;;;;;;;;;;3.00;99.90;;;;;;4533076;30;19940;-81
2022/01/31 08:35:50;;;;;;;;;;;3.00;99.90;;;;;;5174098;27;19942;-83
2022/01/31 08:38:17;;;;;;;;;;;3.00;99.90;;;;;;5120579;27;19923;-78
2022/01/31 08:40:44;;;;;;;;;;;3.00;99.90;;;;;;5115613;28;19931;-82
2022/01/31 08:43:12;;;;;;;;;;;3.00;99.90;;;;;;5042962;28;19933;-85
2022/01/31 08:45:39;;;;;;;;;;;3.10;99.90;;;;;;4943567;28;19999;-82
2022/01/31 08:48:05;;;;;;;;;;;3.20;99.90;;;;;;4793429;29;19938;-83
2022/01/31 08:50:33;;;;;;;;;;;3.20;99.90;;;;;;4624796;30;19942;-79
2022/01/31 08:56:06;;;;;;;;;;;3.30;99.90;;;;;;5174754;27;19926;-81
2022/01/31 08:58:33;;;;;;;;;;;3.30;99.90;;;;;;5132469;27;19923;-81
2022/01/31 09:01:01;;;;;;;;;;;3.40;99.90;;;;;;5093328;28;19928;-81
2022/01/31 09:03:55;;;;;;;;;;;3.50;99.90;;;;;;5039105;28;19933;-80
2022/01/31 09:06:23;;;;;;;;;;;3.60;99.90;;;;;;4901273;28;19930;-81
2022/01/31 09:08:49;;;;;;;;;;;3.60;99.90;;;;;;4729235;29;19938;-82
2022/01/31 09:11:17;;;;;;;;;;;3.60;99.90;;;;;;4491024;30;19936;-83
2022/01/31 09:18:35;;;;;;;;;;;3.60;99.90;;;;;;5178623;27;19925;-85
2022/01/31 09:21:02;;;;;;;;;;;3.70;99.90;;;;;;5137939;27;19924;-83
2022/01/31 09:23:29;;;;;;;;;;;3.70;99.90;;;;;;5120498;27;19950;-83
2022/01/31 09:25:57;;;;;;;;;;;3.70;99.90;;;;;;5072134;28;19929;-80
2022/01/31 09:28:24;;;;;;;;;;;3.70;99.90;;;;;;4995079;28;19927;-81
2022/01/31 09:30:52;;;;;;;;;;;3.70;99.90;;;;;;4766508;29;19956;-84
2022/01/31 09:33:19;;;;;;;;;;;3.80;99.90;;;;;;4396494;31;19947;-81
2022/01/31 09:40:52;;;;;;;;;;;3.80;99.90;;;;;;5183149;27;19925;-79
2022/01/31 09:46:18;;;;;;;;;;;3.80;99.90;;;;;;5080671;28;19947;-80
2022/01/31 09:48:45;;;;;;;;;;;3.80;99.90;;;;;;4997480;28;19934;-80
2022/01/31 09:51:13;;;;;;;;;;;3.90;99.90;;;;;;4921246;28;19928;-82
2022/01/31 09:53:40;;;;;;;;;;;4.00;99.90;;;;;;4675654;29;19945;-81
2022/01/31 09:56:11;;;;;;;;;;;4.00;99.90;;;;;;4444860;31;19938;-80
2022/01/31 10:03:54;;;;;;;;;;;3.90;99.90;;;;;;5204445;27;19925;-84
2022/01/31 10:06:22;;;;;;;;;;;3.90;99.90;;;;;;5126356;27;19923;-84
2022/01/31 10:08:58;;;;;;;;;;;3.90;99.90;;;;;;5129433;27;19923;-83
2022/01/31 10:11:28;;;;;;;;;;;3.80;99.90;;;;;;5065237;28;19932;-83
2022/01/31 10:16:44;;;;;;;;;;;4.00;99.90;;;;;;4686986;29;19933;-81
2022/01/31 10:26:37;;;;;;;;;;;4.10;99.90;;;;;;5177680;27;19926;-83
2022/01/31 10:29:08;;;;;;;;;;;4.40;99.90;;;;;;5150631;27;19922;-81
2022/01/31 10:31:35;;;;;;;;;;;4.50;99.90;;;;;;5144848;27;19930;-81
2022/01/31 10:34:15;;;;;;;;;;;4.40;99.90;;;;;;5090525;28;19931;-80
2022/01/31 10:36:42;;;;;;;;;;;4.40;99.90;;;;;;4971996;28;19935;-83
2022/01/31 10:39:14;;;;;;;;;;;4.10;99.90;;;;;;4817489;29;19930;-82
2022/01/31 10:51:59;;;;;;;;;;;3.90;99.90;;;;;;5100085;28;19947;-81
2022/01/31 10:54:38;;;;;;;;;;;4.00;99.90;;;;;;5037972;28;19925;-84
2022/01/31 10:57:07;;;;;;;;;;;4.10;99.90;;;;;;5005255;28;19933;-81
2022/01/31 10:59:34;;;;;;;;;;;4.00;99.90;;;;;;4895611;28;19929;-81
2022/01/31 11:02:02;;;;;;;;;;;4.10;99.90;;;;;;4745855;29;19938;-84
2022/01/31 11:04:31;;;;;;;;;;;4.20;99.90;;;;;;4458904;30;19939;-81
2022/01/31 11:11:32;;;;;;;;;;;4.00;99.90;;;;;;5192970;27;19925;-81
2022/01/31 11:13:59;;;;;;;;;;;4.10;99.90;;;;;;5145014;27;19923;-80
2022/01/31 11:16:27;;;;;;;;;;;4.30;99.90;;;;;;5134410;27;19923;-79
2022/01/31 11:18:55;;;;;;;;;;;4.40;99.90;;;;;;5114761;28;20010;-81
2022/01/31 11:21:27;;;;;;;;;;;4.50;99.90;;;;;;5029208;28;19926;-80
2022/01/31 11:24:00;;;;;;;;;;;4.60;99.90;;;;;;4862530;28;19963;-82
2022/01/31 11:26:28;;;;;;;;;;;4.70;99.90;;;;;;4744476;29;19932;-84
2022/01/31 11:28:55;;;;;;;;;;;5.00;99.90;;;;;;4478322;30;19938;-85
2022/01/31 11:36:28;;;;;;;;;;;5.60;99.90;;;;;;5174951;27;19925;-84
2022/01/31 11:38:56;;;;;;;;;;;5.40;99.90;;;;;;5114425;27;19924;-83
2022/01/31 11:41:23;;;;;;;;;;;5.50;99.90;;;;;;5124403;27;19931;-83
2022/01/31 11:43:53;;;;;;;;;;;5.40;99.90;;;;;;5098535;28;19931;-80
2022/01/31 11:46:22;;;;;;;;;;;5.60;99.90;;;;;;5004876;28;19928;-80
2022/01/31 11:48:48;;;;;;;;;;;5.70;99.90;;;;;;4851204;29;19937;-81
2022/01/31 11:51:15;;;;;;;;;;;6.00;99.90;;;;;;4624878;30;19934;-80
2022/01/31 11:58:48;;;;;;;;;;;6.70;99.90;;;;;;5179106;27;19941;-84
2022/01/31 12:01:15;;;;;;;;;;;6.80;99.90;;;;;;5116027;27;19924;-85
2022/01/31 12:03:52;;;;;;;;;;;6.70;99.90;;;;;;5104510;28;19931;-83
2022/01/31 12:06:23;;;;;;;;;;;6.80;99.90;;;;;;5063382;28;19925;-81
2022/01/31 12:08:51;;;;;;;;;;;7.20;99.90;;;;;;4951730;28;19927;-83
2022/01/31 12:11:24;;;;;;;;;;;7.20;99.90;;;;;;4820157;29;19937;-81
2022/01/31 12:13:55;;;;;;;;;;;7.30;99.90;;;;;;4600908;30;19934;-81
2022/01/31 12:24:22;;;;;;;;;;;8.00;99.90;;;;;;5084572;27;19932;-80
2022/01/31 12:26:50;;;;;;;;;;;8.10;99.90;;;;;;5081201;28;19925;-84
2022/01/31 12:29:18;;;;;;;;;;;8.20;99.90;;;;;;4987717;28;19931;-85
2022/01/31 12:31:46;;;;;;;;;;;8.20;99.90;;;;;;4846586;29;19937;-84
2022/01/31 12:34:28;;;;;;;;;;;7.80;99.90;;;;;;4601458;30;19947;-82
2022/01/31 12:36:56;;;;;;;;;;;7.30;99.90;;;;;;4318861;32;19941;-83
2022/01/31 12:44:48;;;;;;;;;;;7.50;99.90;;;;;;5176210;27;19926;-80
2022/01/31 12:47:17;;;;;;;;;;;7.50;99.90;;;;;;5136337;27;19930;-79
2022/01/31 12:49:44;;;;;;;;;;;7.40;99.90;;;;;;5093114;27;19923;-83
2022/01/31 12:52:12;;;;;;;;;;;7.40;99.90;;;;;;5101101;28;19931;-82
2022/01/31 12:54:39;;;;;;;;;;;7.20;99.90;;;;;;5075437;28;19925;-81
2022/01/31 12:57:07;;;;;;;;;;;6.90;99.90;;;;;;4874725;28;19930;-82
2022/01/31 12:59:34;;;;;;;;;;;6.80;99.90;;;;;;4541134;30;19943;-81
2022/01/31 13:09:04;;;;;;;;;;;6.70;99.90;;;;;;5176724;27;19941;-80
2022/01/31 13:11:32;;;;;;;;;;;6.40;99.90;;;;;;5107896;28;19931;-80
2022/01/31 13:14:06;;;;;;;;;;;6.20;99.90;;;;;;5091419;28;19931;-79
2022/01/31 13:16:38;;;;;;;;;;;6.20;99.90;;;;;;5039616;28;19945;-80
2022/01/31 13:19:10;;;;;;;;;;;6.50;99.90;;;;;;4995800;28;19928;-81
2022/01/31 13:21:37;;;;;;;;;;;7.00;99.90;;;;;;4721684;29;19943;-83
2022/01/31 13:24:05;;;;;;;;;;;7.30;99.90;;;;;;4446205;31;19937;-83
2022/01/31 13:31:41;;;;;;;;;;;7.00;99.90;;;;;;5174508;27;19925;-82
2022/01/31 13:34:08;;;;;;;;;;;6.70;99.90;;;;;;5097292;28;19931;-81
2022/01/31 13:36:37;;;;;;;;;;;6.50;99.90;;;;;;5097645;28;19931;-87
2022/01/31 13:39:04;;;;;;;;;;;6.40;99.90;;;;;;5073142;28;19925;-87
2022/01/31 13:41:31;;;;;;;;;;;6.40;99.90;;;;;;5023657;28;19926;-85
2022/01/31 13:44:00;;;;;;;;;;;6.50;99.90;;;;;;4927690;28;19927;-88
2022/01/31 13:46:31;;;;;;;;;;;6.50;99.90;;;;;;4775095;29;19916;-86
2022/01/31 13:51:47;;;;;;;;;;;6.20;99.90;;;;;;5196646;27;19941;-86
2022/01/31 13:54:15;;;;;;;;;;;6.00;99.90;;;;;;5139100;27;19931;-81
2022/01/31 13:56:45;;;;;;;;;;;5.80;99.90;;;;;;5132237;27;19923;-82
2022/01/31 13:59:14;;;;;;;;;;;5.80;99.90;;;;;;5129199;28;19924;-85
2022/01/31 14:01:41;;;;;;;;;;;5.80;99.90;;;;;;5023699;28;19928;-85
2022/01/31 14:04:09;;;;;;;;;;;5.80;99.90;;;;;;4921878;29;20034;-83
2022/01/31 14:06:36;;;;;;;;;;;5.80;99.90;;;;;;4725934;29;19955;-81
2022/01/31 14:14:10;;;;;;;;;;;5.90;99.90;;;;;;5175972;27;19926;-84
2022/01/31 14:16:38;;;;;;;;;;;5.90;99.90;;;;;;5148034;27;19935;-81
2022/01/31 14:19:05;;;;;;;;;;;5.70;99.90;;;;;;5119751;27;19923;-85
2022/01/31 14:21:34;;;;;;;;;;;5.60;99.90;;;;;;5086217;28;19924;-82
2022/01/31 14:24:01;;;;;;;;;;;5.60;99.90;;;;;;5024800;28;19925;-86
2022/01/31 14:26:34;;;;;;;;;;;5.60;99.90;;;;;;4953282;28;19935;-84
2022/01/31 14:29:01;;;;;;;;;;;5.60;99.90;;;;;;4570972;29;19947;-86
2022/01/31 14:35:38;;;;;;;;;;;5.60;99.90;;;;;;5178105;27;19926;-87
2022/01/31 14:38:11;;;;;;;;;;;5.50;99.90;;;;;;5138645;27;19930;-84
2022/01/31 14:49:21;;;;;;;;;;;5.60;99.90;;;;;;4728153;29;19931;-85
2022/01/31 14:51:49;;;;;;;;;;;5.60;99.90;;;;;;4426620;31;19941;-84
2022/01/31 14:59:19;;;;;;;;;;;5.40;99.90;;;;;;5173898;27;19927;-82
2022/01/31 15:01:47;;;;;;;;;;;5.30;99.90;;;;;;5126338;27;19938;-89
2022/01/31 15:04:18;;;;;;;;;;;5.30;99.90;;;;;;5125929;27;19923;-87
2022/01/31 15:06:45;;;;;;;;;;;5.30;99.90;;;;;;5110374;28;19934;-86
2022/01/31 15:09:12;;;;;;;;;;;5.30;99.90;;;;;;5052375;28;19929;-81
2022/01/31 15:11:39;;;;;;;;;;;5.20;99.90;;;;;;4864153;28;19930;-85
2022/01/31 15:14:06;;;;;;;;;;;5.20;99.90;;;;;;4537041;30;19950;-86
2022/01/31 15:21:17;;;;;;;;;;;5.00;99.90;;;;;;5170120;27;19925;-82
2022/01/31 15:23:46;;;;;;;;;;;4.90;99.90;;;;;;5134655;27;19924;-83
2022/01/31 15:26:16;;;;;;;;;;;4.70;99.90;;;;;;5115348;28;19934;-83
2022/01/31 15:28:48;;;;;;;;;;;4.70;99.90;;;;;;5084560;28;19931;-86
2022/01/31 15:31:15;;;;;;;;;;;4.60;99.90;;;;;;4974802;28;19929;-84
2022/01/31 15:33:41;;;;;;;;;;;4.50;99.90;;;;;;4766243;29;19962;-86
2022/01/31 15:36:10;;;;;;;;;;;4.40;99.90;;;;;;4467397;31;19944;-83
2022/01/31 15:43:31;;;;;;;;;;;4.30;99.90;;;;;;5171290;27;19927;-84
2022/01/31 15:45:58;;;;;;;;;;;4.20;99.90;;;;;;5104872;27;19924;-85
2022/01/31 15:48:26;;;;;;;;;;;4.20;99.90;;;;;;5087108;28;19924;-87
2022/01/31 15:50:53;;;;;;;;;;;4.20;99.90;;;;;;5061430;28;19925;-79
2022/01/31 15:53:19;;;;;;;;;;;4.10;99.90;;;;;;5007259;28;19934;-81
2022/01/31 15:55:46;;;;;;;;;;;4.10;99.90;;;;;;4867994;29;19929;-80
2022/01/31 15:58:14;;;;;;;;;;;4.10;99.90;;;;;;4675206;29;19934;-79
2022/01/31 16:05:47;;;;;;;;;;;3.90;99.90;;;;;;5161359;27;19927;-81
2022/01/31 16:08:14;;;;;;;;;;;3.90;99.90;;;;;;5106361;27;19924;-80
2022/01/31 16:10:45;;;;;;;;;;;3.80;99.90;;;;;;5110413;28;19930;-81
2022/01/31 16:13:13;;;;;;;;;;;3.70;99.90;;;;;;5098208;28;19924;-83
2022/01/31 16:15:40;;;;;;;;;;;3.70;99.90;;;;;;5054911;28;19925;-86
2022/01/31 16:18:07;;;;;;;;;;;3.60;99.90;;;;;;4870060;28;19938;-83
2022/01/31 16:20:34;;;;;;;;;;;3.60;99.90;;;;;;4558774;30;19936;-82
2022/01/31 16:28:04;;;;;;;;;;;3.50;99.90;;;;;;5182964;27;19929;-82
2022/01/31 16:30:32;;;;;;;;;;;3.40;99.90;;;;;;5140625;27;19924;-82
2022/01/31 16:32:59;;;;;;;;;;;3.40;99.90;;;;;;5117268;27;19934;-82
2022/01/31 16:35:26;;;;;;;;;;;3.40;99.90;;;;;;5102785;28;19931;-81
2022/01/31 16:37:53;;;;;;;;;;;3.40;99.90;;;;;;5038114;28;19926;-81
2022/01/31 16:40:20;;;;;;;;;;;3.50;99.90;;;;;;4866773;28;19934;-80
2022/01/31 16:42:46;;;;;;;;;;;3.50;99.90;;;;;;4619711;29;19939;-80
2022/01/31 16:50:18;;;;;;;;;;;3.40;99.90;;;;;;5174300;27;19926;-81
2022/01/31 16:52:45;;;;;;;;;;;3.50;99.90;;;;;;5106630;28;19931;-82
2022/01/31 16:55:12;;;;;;;;;;;3.50;99.90;;;;;;5067149;28;19924;-82
2022/01/31 16:57:39;;;;;;;;;;;3.50;99.90;;;;;;5011673;28;19933;-81
2022/01/31 17:00:08;;;;;;;;;;;3.50;99.90;;;;;;4923557;28;19936;-83
2022/01/31 17:02:35;;;;;;;;;;;3.40;99.90;;;;;;4731763;30;19931;-80
2022/01/31 17:05:02;;;;;;;;;;;3.40;99.90;;;;;;4562265;30;19936;-84
2022/01/31 17:12:29;;;;;;;;;;;3.40;99.90;;;;;;5163402;27;19926;-82
2022/01/31 17:14:56;;;;;;;;;;;3.30;99.90;;;;;;5126067;27;19924;-82
2022/01/31 17:17:22;;;;;;;;;;;3.30;99.90;;;;;;5112695;28;19934;-82
2022/01/31 17:19:49;;;;;;;;;;;3.30;99.90;;;;;;5094717;28;19925;-84
2022/01/31 17:22:16;;;;;;;;;;;3.40;99.90;;;;;;4989016;28;19934;-83
2022/01/31 17:24:42;;;;;;;;;;;3.40;99.90;;;;;;4831517;29;19931;-83
2022/01/31 17:27:09;;;;;;;;;;;3.40;99.90;;;;;;4588162;30;19942;-82
2022/01/31 17:34:13;;;;;;;;;;;3.30;99.90;;;;;;5188873;27;19925;-80
2022/01/31 17:36:40;;;;;;;;;;;3.30;99.90;;;;;;5149781;27;19930;-81
2022/01/31 17:39:06;;;;;;;;;;;3.30;99.90;;;;;;5133154;27;19938;-83
2022/01/31 17:41:35;;;;;;;;;;;3.30;99.90;;;;;;5087407;28;19932;-83
2022/01/31 17:44:03;;;;;;;;;;;3.20;99.90;;;;;;5028601;28;19929;-85
2022/01/31 17:46:31;;;;;;;;;;;3.20;99.90;;;;;;4879399;28;19931;-85
2022/01/31 17:48:57;;;;;;;;;;;3.40;99.90;;;;;;4599619;30;19935;-83
2022/01/31 17:56:30;;;;;;;;;;;3.40;99.90;;;;;;5174366;27;19926;-82
2022/01/31 17:58:58;;;;;;;;;;;3.40;99.90;;;;;;5125664;27;19924;-80
2022/01/31 18:01:25;;;;;;;;;;;3.30;99.90;;;;;;5125964;28;19924;-82
2022/01/31 18:03:51;;;;;;;;;;;3.30;99.90;;;;;;5087694;28;19924;-81
2022/01/31 18:06:18;;;;;;;;;;;3.40;99.90;;;;;;4995644;28;19930;-83
2022/01/31 18:08:45;;;;;;;;;;;3.30;99.90;;;;;;4872898;28;19937;-82
2022/01/31 18:11:11;;;;;;;;;;;3.40;99.90;;;;;;4591795;30;19959;-84
2022/01/31 18:18:44;;;;;;;;;;;3.40;99.90;;;;;;5176545;27;19941;-84
2022/01/31 18:21:11;;;;;;;;;;;3.30;99.90;;;;;;5124640;27;19923;-83
2022/01/31 18:23:38;;;;;;;;;;;3.20;99.90;;;;;;5096233;28;19939;-85
2022/01/31 18:26:04;;;;;;;;;;;3.20;99.90;;;;;;5049943;28;19933;-81
2022/01/31 18:28:34;;;;;;;;;;;3.10;99.90;;;;;;4995457;28;19935;-82
2022/01/31 18:31:03;;;;;;;;;;;3.00;99.90;;;;;;4762436;29;19935;-87
2022/01/31 18:33:35;;;;;;;;;;;2.90;99.90;;;;;;4543178;30;19937;-85
2022/01/31 18:41:08;;;;;;;;;;;2.60;99.90;;;;;;5173328;27;19926;-88
2022/01/31 18:43:34;;;;;;;;;;;2.50;99.90;;;;;;5121747;27;19933;-88
2022/01/31 18:46:01;;;;;;;;;;;2.40;99.90;;;;;;5098759;28;19938;-86
2022/01/31 18:48:28;;;;;;;;;;;2.30;99.90;;;;;;5083943;28;19924;-85
2022/01/31 18:51:00;;;;;;;;;;;2.20;99.90;;;;;;5002488;28;19927;-85
2022/01/31 18:53:26;;;;;;;;;;;2.20;99.90;;;;;;4795907;29;19931;-91
2022/01/31 18:55:54;;;;;;;;;;;2.10;99.90;;;;;;4591675;30;19929;-89
2022/01/31 19:03:06;;;;;;;;;;;2.20;99.90;;;;;;5159336;27;19942;-81
2022/01/31 19:05:34;;;;;;;;;;;2.20;99.90;;;;;;5117834;27;19923;-82
2022/01/31 19:08:07;;;;;;;;;;;2.10;99.90;;;;;;5116218;27;19923;-84